ěÝzenÝ letovÚho provozu ╚eskÚ republiky
Letiste: LKPR Aktualizace: 09.12.2022 13:34:32  UTC
 METAR LKPR 09.12. 13:30 RRA
METAR LKPR 091330Z 04005KT 7000 FEW010 BKN020 M00/M02 Q1003 NOSIG=
 TAF LKPR 09.12. 11:00 ...
TAF LKPR 091100Z 0912/1018 04006KT 9999 SCT040      BECMG 0912/0914 7000 BKN017      TEMPO 0914/1000 3000 -SN BR BKN007 OVC012      PROB30 TEMPO 0916/0921 BKN004      BECMG 0922/1000 35005KT      TEMPO 1000/1018 BKN011      PROB30 TEMPO 1016/1018 BKN006=